createdAt,value
2022-08-26T00:03:45.090Z,75.08
2022-08-26T00:07:33.057Z,75.44
2022-08-26T00:11:26.784Z,75.88
2022-08-26T00:15:14.613Z,77.04
2022-08-26T00:19:02.327Z,76.66
2022-08-26T00:22:50.320Z,78.90
2022-08-26T00:26:28.573Z,78.93
2022-08-26T00:30:17.594Z,79.11
2022-08-26T00:34:11.266Z,79.31
2022-08-26T00:37:52.420Z,79.20
2022-08-26T00:41:33.969Z,77.81
2022-08-26T00:45:14.703Z,79.28
2022-08-26T00:49:01.393Z,79.45
2022-08-26T00:52:49.970Z,79.82
2022-08-26T00:56:32.003Z,79.93
2022-08-26T01:00:12.903Z,80.46
2022-08-26T01:03:59.040Z,79.12
2022-08-26T01:07:48.180Z,80.25
2022-08-26T01:11:30.380Z,80.50
2022-08-26T01:15:18.087Z,80.89
2022-08-26T01:19:04.877Z,80.57
2022-08-26T01:23:01.612Z,80.45
2022-08-26T01:26:51.142Z,80.81
2022-08-26T01:30:39.244Z,80.65
2022-08-26T01:34:33.339Z,80.00
2022-08-26T01:38:21.154Z,79.54
2022-08-26T01:42:05.416Z,79.20
2022-08-26T01:45:51.053Z,79.64
2022-08-26T01:49:38.708Z,78.88
2022-08-26T01:53:17.648Z,78.98
2022-08-26T01:57:04.666Z,77.96
2022-08-26T02:00:51.514Z,76.40
2022-08-26T02:04:48.592Z,78.99
2022-08-26T02:08:37.651Z,78.38
2022-08-26T02:12:24.352Z,79.29
2022-08-26T02:16:06.598Z,79.85
2022-08-26T02:19:43.389Z,80.55
2022-08-26T02:23:31.421Z,82.38
2022-08-26T02:27:12.559Z,82.64
2022-08-26T02:31:00.671Z,82.37
2022-08-26T02:34:53.247Z,81.47
2022-08-26T02:38:40.979Z,83.56
2022-08-26T02:42:23.944Z,82.99
2022-08-26T02:46:12.974Z,83.37
2022-08-26T02:50:09.511Z,83.20
2022-08-26T02:53:50.324Z,81.19
2022-08-26T02:57:39.238Z,80.08
2022-08-26T03:01:20.206Z,80.46
2022-08-26T03:05:09.688Z,80.50
2022-08-26T03:08:57.394Z,78.91
2022-08-26T03:12:48.093Z,79.27
2022-08-26T03:16:36.167Z,80.25
2022-08-26T03:20:24.704Z,80.11
2022-08-26T03:24:11.792Z,79.77
2022-08-26T03:27:59.654Z,80.56
2022-08-26T03:31:47.046Z,79.42
2022-08-26T03:35:33.751Z,80.75
2022-08-26T03:39:21.663Z,82.28
2022-08-26T03:43:02.206Z,79.99
2022-08-26T03:46:50.210Z,80.25
2022-08-26T03:50:38.170Z,80.71
2022-08-26T03:54:24.649Z,80.99
2022-08-26T03:58:04.918Z,84.05
2022-08-26T04:01:53.535Z,83.90
2022-08-26T04:05:35.111Z,83.98
2022-08-26T04:09:22.915Z,83.13
2022-08-26T04:13:12.654Z,83.56
2022-08-26T04:16:55.347Z,84.28
2022-08-26T04:20:34.498Z,83.42
2022-08-26T04:24:15.517Z,82.23
2022-08-26T04:28:04.959Z,83.76
2022-08-26T04:31:55.548Z,81.11
2022-08-26T04:35:44.405Z,80.34
2022-08-26T04:39:34.575Z,81.59
2022-08-26T04:43:21.585Z,80.78
2022-08-26T04:47:09.526Z,78.83
2022-08-26T04:50:59.172Z,79.93
2022-08-26T04:54:39.516Z,80.73
2022-08-26T04:58:30.230Z,79.25
2022-08-26T05:02:18.322Z,76.84
2022-08-26T05:06:06.794Z,74.61
2022-08-26T05:09:47.654Z,73.97
2022-08-26T05:13:27.836Z,73.30
2022-08-26T05:16:58.144Z,71.75
2022-08-26T05:20:45.835Z,71.96
2022-08-26T05:24:37.311Z,74.02
2022-08-26T05:28:25.297Z,73.26
2022-08-26T05:32:12.003Z,71.76
2022-08-26T05:35:52.473Z,74.02
2022-08-26T05:39:41.266Z,75.06
2022-08-26T05:43:31.316Z,74.65
2022-08-26T05:47:12.248Z,75.05
2022-08-26T05:51:00.098Z,75.06
2022-08-26T05:54:40.602Z,74.35
2022-08-26T05:58:28.372Z,73.21
2022-08-26T06:02:16.148Z,74.13
2022-08-26T06:06:04.422Z,73.70
2022-08-26T06:10:05.429Z,72.89
2022-08-26T06:14:03.856Z,72.01
2022-08-26T06:17:44.333Z,70.74
2022-08-26T06:21:31.832Z,70.47
2022-08-26T06:25:18.580Z,68.61
2022-08-26T06:28:57.421Z,66.93
2022-08-26T06:32:45.235Z,65.65
2022-08-26T06:36:32.977Z,64.95
2022-08-26T06:40:19.308Z,63.17
2022-08-26T06:44:05.569Z,64.45
2022-08-26T06:47:54.390Z,65.74
2022-08-26T06:51:42.360Z,62.17
2022-08-26T06:55:30.146Z,61.34
2022-08-26T06:59:17.964Z,61.29
2022-08-26T07:03:06.307Z,59.64
2022-08-26T07:06:55.535Z,58.41
2022-08-26T07:10:43.577Z,57.01
2022-08-26T07:14:32.186Z,53.24
2022-08-26T07:18:20.156Z,51.73
2022-08-26T07:22:10.985Z,51.03
2022-08-26T07:25:58.732Z,51.68
2022-08-26T07:29:44.449Z,51.24
2022-08-26T07:33:26.650Z,48.84
2022-08-26T07:37:15.038Z,48.65
2022-08-26T07:41:06.047Z,48.23
2022-08-26T07:44:49.163Z,47.88
2022-08-26T07:48:38.175Z,46.48
2022-08-26T07:52:27.587Z,47.02
2022-08-26T07:56:16.327Z,45.94
2022-08-26T08:00:04.281Z,47.26
2022-08-26T08:03:52.504Z,45.42
2022-08-26T08:07:44.621Z,45.50
2022-08-26T08:11:34.244Z,44.96
2022-08-26T08:15:23.574Z,43.92
2022-08-26T08:19:12.069Z,43.81
2022-08-26T08:22:53.535Z,42.75
2022-08-26T08:26:41.012Z,43.18
2022-08-26T08:30:29.370Z,42.01
2022-08-26T08:34:18.119Z,42.24
2022-08-26T08:38:00.555Z,42.11
2022-08-26T08:41:43.213Z,42.39
2022-08-26T08:45:35.948Z,42.05
2022-08-26T08:49:28.063Z,41.36
2022-08-26T08:53:25.829Z,40.61
2022-08-26T08:57:13.390Z,39.52
2022-08-26T09:01:10.613Z,38.94
2022-08-26T09:05:15.122Z,39.69
2022-08-26T09:09:03.566Z,39.55
2022-08-26T09:12:50.631Z,38.20
2022-08-26T09:16:48.793Z,38.47
2022-08-26T09:20:49.350Z,37.74
2022-08-26T09:24:41.809Z,36.86
2022-08-26T09:28:35.952Z,35.88
2022-08-26T09:32:30.402Z,36.45
2022-08-26T09:36:27.151Z,34.78
2022-08-26T09:40:35.030Z,34.87
2022-08-26T09:44:23.121Z,34.93
2022-08-26T09:48:13.712Z,35.35
2022-08-26T09:52:20.897Z,35.18
2022-08-26T09:56:04.366Z,34.72
2022-08-26T09:59:54.557Z,34.12
2022-08-26T10:03:42.671Z,33.29
2022-08-26T10:07:36.254Z,32.40
2022-08-26T10:11:25.233Z,32.57
2022-08-26T10:15:12.820Z,32.75
2022-08-26T10:19:00.160Z,32.97
2022-08-26T10:23:00.646Z,31.65
2022-08-26T10:27:06.659Z,32.07
2022-08-26T10:30:58.338Z,31.44
2022-08-26T10:34:46.502Z,31.32
2022-08-26T10:38:40.745Z,31.79
2022-08-26T10:42:32.323Z,31.29
2022-08-26T10:46:15.460Z,30.65
2022-08-26T10:49:55.584Z,30.03
2022-08-26T10:54:00.139Z,30.99
2022-08-26T10:57:53.570Z,30.45
2022-08-26T11:01:55.875Z,30.87
2022-08-26T11:05:46.548Z,29.68
2022-08-26T11:09:34.078Z,29.23
2022-08-26T11:13:26.197Z,29.90
2022-08-26T11:17:14.036Z,29.41
2022-08-26T11:21:10.242Z,29.11
2022-08-26T11:24:56.104Z,27.96
2022-08-26T11:28:50.376Z,28.79
2022-08-26T11:32:39.201Z,28.52
2022-08-26T11:36:28.173Z,29.29
2022-08-26T11:40:16.223Z,27.98
2022-08-26T11:44:06.927Z,27.82
2022-08-26T11:47:54.692Z,27.43
2022-08-26T11:51:52.125Z,27.08
2022-08-26T11:55:39.844Z,27.21
2022-08-26T11:59:27.891Z,27.13
2022-08-26T12:03:18.597Z,27.46
2022-08-26T12:07:24.105Z,27.23
2022-08-26T12:11:12.705Z,27.38
2022-08-26T12:15:01.529Z,26.76
2022-08-26T12:18:59.869Z,26.14
2022-08-26T12:22:48.412Z,26.96
2022-08-26T12:26:41.943Z,26.56
2022-08-26T12:30:28.811Z,26.32
2022-08-26T12:34:17.830Z,26.06
2022-08-26T12:38:06.211Z,25.65
2022-08-26T12:42:00.346Z,26.15
2022-08-26T12:46:14.204Z,25.93
2022-08-26T12:50:02.187Z,25.88
2022-08-26T12:53:50.448Z,25.68
2022-08-26T12:57:38.366Z,26.12
2022-08-26T13:01:37.926Z,25.95
2022-08-26T13:05:38.043Z,25.76
2022-08-26T13:09:28.223Z,25.00
2022-08-26T13:13:30.932Z,25.56
2022-08-26T13:17:20.246Z,25.73
2022-08-26T13:21:08.151Z,25.40
2022-08-26T13:24:55.955Z,24.35
2022-08-26T13:28:43.680Z,25.40
2022-08-26T13:32:31.991Z,25.36
2022-08-26T13:36:12.938Z,25.70
2022-08-26T13:40:00.325Z,25.07
2022-08-26T13:43:48.982Z,26.06
2022-08-26T14:05:47.392Z,26.31
2022-08-26T14:09:38.571Z,24.81
2022-08-26T14:13:27.820Z,25.03
2022-08-26T14:17:17.681Z,25.41
2022-08-26T14:21:07.435Z,25.14
2022-08-26T14:24:56.861Z,26.29
2022-08-26T14:28:46.322Z,25.25
2022-08-26T14:32:36.511Z,25.14
2022-08-26T14:36:24.577Z,25.79
2022-08-26T14:40:13.184Z,25.81
2022-08-26T14:44:01.821Z,26.29
2022-08-26T14:47:50.257Z,25.50
2022-08-26T14:51:39.250Z,25.90
2022-08-26T14:55:30.281Z,25.17
2022-08-26T14:59:20.407Z,25.15
2022-08-26T15:18:18.319Z,25.77
2022-08-26T15:22:07.269Z,25.89
2022-08-26T15:25:54.899Z,26.30
2022-08-26T15:29:47.045Z,25.41
2022-08-26T15:33:35.481Z,26.04
2022-08-26T15:37:23.944Z,26.00
2022-08-26T15:41:12.511Z,26.39
2022-08-26T15:44:54.433Z,26.48
2022-08-26T15:48:42.905Z,26.86
2022-08-26T15:52:31.389Z,26.54
2022-08-26T15:56:19.783Z,26.51
2022-08-26T16:00:01.008Z,26.90
2022-08-26T16:03:49.491Z,27.38
2022-08-26T16:07:37.950Z,27.14
2022-08-26T16:11:20.232Z,27.41
2022-08-26T16:14:57.688Z,27.67
2022-08-26T16:18:14.047Z,28.35
2022-08-26T16:21:32.901Z,27.93
2022-08-26T16:25:14.272Z,27.99
2022-08-26T16:28:51.883Z,28.09
2022-08-26T16:32:31.317Z,28.06
2022-08-26T16:36:19.936Z,28.13
2022-08-26T16:39:40.194Z,28.13
2022-08-26T16:43:05.308Z,28.53
2022-08-26T16:46:56.031Z,28.94
2022-08-26T16:50:47.813Z,29.85
2022-08-26T16:54:16.497Z,29.78
2022-08-26T16:57:42.009Z,29.71
2022-08-26T17:01:31.744Z,28.92
2022-08-26T17:05:00.521Z,29.43
2022-08-26T17:08:24.245Z,30.44
2022-08-26T17:12:16.934Z,30.83
2022-08-26T17:15:58.472Z,31.44
2022-08-26T17:19:18.926Z,30.67
2022-08-26T17:23:01.750Z,30.89
2022-08-26T17:26:34.120Z,31.88
2022-08-26T17:30:18.808Z,32.33
2022-08-26T17:34:08.193Z,33.57
2022-08-26T17:37:32.856Z,34.61
2022-08-26T17:41:21.388Z,37.35
2022-08-26T17:45:09.833Z,38.82
2022-08-26T17:48:49.569Z,38.92
2022-08-26T17:52:39.698Z,40.23
2022-08-26T17:56:27.481Z,41.24
2022-08-26T18:00:06.997Z,41.74
2022-08-26T18:03:36.618Z,42.46
2022-08-26T18:07:26.125Z,42.61
2022-08-26T18:11:15.989Z,43.49
2022-08-26T18:14:36.093Z,43.86
2022-08-26T18:18:16.721Z,44.15
2022-08-26T18:21:55.324Z,44.00
2022-08-26T18:25:38.687Z,43.70
2022-08-26T18:29:29.433Z,43.47
2022-08-26T18:33:19.080Z,43.35
2022-08-26T18:40:52.185Z,43.14
2022-08-26T18:44:41.443Z,42.88
2022-08-26T18:48:30.538Z,42.41
2022-08-26T18:52:21.958Z,42.24
2022-08-26T18:56:14.316Z,43.06
2022-08-26T19:00:05.497Z,43.36
2022-08-26T19:03:53.571Z,44.36
2022-08-26T19:07:39.397Z,44.33
2022-08-26T19:11:31.578Z,44.47
2022-08-26T19:15:22.181Z,45.20
2022-08-26T19:18:39.583Z,45.00
2022-08-26T19:22:29.570Z,44.58
2022-08-26T19:26:25.486Z,44.87
2022-08-26T19:29:36.126Z,45.50
2022-08-26T19:33:16.802Z,46.16
2022-08-26T19:37:08.859Z,46.45
2022-08-26T19:40:58.652Z,46.97
2022-08-26T19:44:31.825Z,46.60
2022-08-26T19:48:16.632Z,45.59
2022-08-26T19:51:59.821Z,44.85
2022-08-26T19:55:50.819Z,44.03
2022-08-26T19:59:34.774Z,44.00
2022-08-26T20:03:21.552Z,44.03
2022-08-26T20:06:57.567Z,44.03
2022-08-26T20:10:50.117Z,44.30
2022-08-26T20:14:34.175Z,44.24
2022-08-26T20:18:12.001Z,44.29
2022-08-26T20:22:01.357Z,45.05
2022-08-26T20:25:44.237Z,45.46
2022-08-26T20:29:34.787Z,46.05
2022-08-26T20:33:27.467Z,46.64
2022-08-26T20:37:18.460Z,47.38
2022-08-26T20:41:08.018Z,47.80
2022-08-26T20:45:00.376Z,48.24
2022-08-26T20:48:51.388Z,49.03
2022-08-26T20:52:33.031Z,49.70
2022-08-26T20:56:16.583Z,49.57
2022-08-26T21:00:06.706Z,49.71
2022-08-26T21:03:48.460Z,48.98
2022-08-26T21:07:37.774Z,48.47
2022-08-26T21:11:28.183Z,48.27
2022-08-26T21:15:18.448Z,48.42
2022-08-26T21:19:07.143Z,48.41
2022-08-26T21:23:00.970Z,47.87
2022-08-26T21:26:51.414Z,47.37
2022-08-26T21:30:45.009Z,47.03
2022-08-26T21:34:36.980Z,47.47
2022-08-26T21:38:11.224Z,48.89
2022-08-26T21:41:47.020Z,49.67
2022-08-26T21:45:38.477Z,49.50
2022-08-26T21:49:15.728Z,51.30
2022-08-26T21:52:56.904Z,51.35
2022-08-26T21:56:47.965Z,52.23
2022-08-26T22:00:30.096Z,53.15
2022-08-26T22:04:19.852Z,53.09
2022-08-26T22:07:54.210Z,53.21
2022-08-26T22:11:34.034Z,53.15
2022-08-26T22:15:23.326Z,52.80
2022-08-26T22:19:02.536Z,52.61
2022-08-26T22:22:44.459Z,52.69
2022-08-26T22:26:04.459Z,51.83
2022-08-26T22:29:54.815Z,50.84
2022-08-26T22:33:42.445Z,50.09
2022-08-26T22:37:30.172Z,50.04
2022-08-26T22:41:00.561Z,50.25
2022-08-26T22:44:36.384Z,50.23
2022-08-26T22:48:16.407Z,50.41
2022-08-26T22:52:04.094Z,50.69
2022-08-26T22:55:44.436Z,51.41
2022-08-26T22:59:32.117Z,51.70
2022-08-26T23:03:02.395Z,52.05
2022-08-26T23:06:50.140Z,52.93
2022-08-26T23:10:38.029Z,53.93
2022-08-26T23:14:26.226Z,52.78
2022-08-26T23:17:58.512Z,56.15
2022-08-26T23:21:39.364Z,55.47
2022-08-26T23:25:27.572Z,56.26
2022-08-26T23:28:58.676Z,55.09
2022-08-26T23:32:46.525Z,55.64
2022-08-26T23:36:35.110Z,55.25
2022-08-26T23:40:23.235Z,53.51
2022-08-26T23:44:12.170Z,54.06
2022-08-26T23:47:59.921Z,52.73
2022-08-26T23:51:46.125Z,53.97
2022-08-26T23:55:28.498Z,57.41
2022-08-26T23:59:16.106Z,60.53
